sensor_id;sensor_type;location;lat;lon;timestamp;pressure;altitude;pressure_sealevel;temperature;humidity
79455;BME280;68900;52.134;5.420;2023-07-31T00:01:37;101071.34;;;16.40;87.36
79455;BME280;68900;52.134;5.420;2023-07-31T00:04:03;101070.13;;;16.43;87.42
79455;BME280;68900;52.134;5.420;2023-07-31T00:06:30;101074.72;;;16.42;87.41
79455;BME280;68900;52.134;5.420;2023-07-31T00:08:56;101070.81;;;16.45;87.28
79455;BME280;68900;52.134;5.420;2023-07-31T00:11:23;101060.63;;;16.39;87.97
79455;BME280;68900;52.134;5.420;2023-07-31T00:13:49;101051.59;;;16.38;88.08
79455;BME280;68900;52.134;5.420;2023-07-31T00:16:19;101046.00;;;16.40;87.83
79455;BME280;68900;52.134;5.420;2023-07-31T00:18:45;101033.00;;;16.42;87.74
79455;BME280;68900;52.134;5.420;2023-07-31T00:21:12;101029.09;;;16.44;88.27
79455;BME280;68900;52.134;5.420;2023-07-31T00:23:38;101036.88;;;16.47;88.52
79455;BME280;68900;52.134;5.420;2023-07-31T00:26:15;101035.47;;;16.51;88.29
79455;BME280;68900;52.134;5.420;2023-07-31T00:28:53;101030.03;;;16.51;87.97
79455;BME280;68900;52.134;5.420;2023-07-31T00:31:20;101041.47;;;16.47;88.11
79455;BME280;68900;52.134;5.420;2023-07-31T00:33:46;101046.09;;;16.46;87.92
79455;BME280;68900;52.134;5.420;2023-07-31T00:36:13;101035.69;;;16.50;88.06
79455;BME280;68900;52.134;5.420;2023-07-31T00:38:39;101025.44;;;16.52;87.89
79455;BME280;68900;52.134;5.420;2023-07-31T00:41:06;101027.97;;;16.53;87.75
79455;BME280;68900;52.134;5.420;2023-07-31T00:43:32;101022.84;;;16.58;88.14
79455;BME280;68900;52.134;5.420;2023-07-31T00:45:59;101022.69;;;16.60;88.65
79455;BME280;68900;52.134;5.420;2023-07-31T00:48:30;101018.06;;;16.60;88.83
79455;BME280;68900;52.134;5.420;2023-07-31T00:51:03;101011.59;;;16.61;89.23
79455;BME280;68900;52.134;5.420;2023-07-31T00:53:30;101015.63;;;16.65;89.77
79455;BME280;68900;52.134;5.420;2023-07-31T00:56:09;101016.13;;;16.69;90.13
79455;BME280;68900;52.134;5.420;2023-07-31T00:58:44;101008.59;;;16.71;89.69
79455;BME280;68900;52.134;5.420;2023-07-31T01:01:11;101009.03;;;16.74;90.59
79455;BME280;68900;52.134;5.420;2023-07-31T01:03:37;101014.78;;;16.79;89.99
79455;BME280;68900;52.134;5.420;2023-07-31T01:06:20;101007.91;;;16.84;90.50
79455;BME280;68900;52.134;5.420;2023-07-31T01:09:07;101000.41;;;16.86;90.46
79455;BME280;68900;52.134;5.420;2023-07-31T01:11:46;101009.50;;;16.93;90.12
79455;BME280;68900;52.134;5.420;2023-07-31T01:14:13;100999.28;;;16.95;90.79
79455;BME280;68900;52.134;5.420;2023-07-31T01:16:39;101006.44;;;16.96;90.55
79455;BME280;68900;52.134;5.420;2023-07-31T01:19:07;101016.94;;;16.99;90.53
79455;BME280;68900;52.134;5.420;2023-07-31T01:24:22;101015.25;;;16.98;89.99
79455;BME280;68900;52.134;5.420;2023-07-31T01:26:58;101013.38;;;16.98;89.67
79455;BME280;68900;52.134;5.420;2023-07-31T01:29:37;101007.28;;;16.96;89.31
79455;BME280;68900;52.134;5.420;2023-07-31T01:32:06;101013.09;;;16.93;89.67
79455;BME280;68900;52.134;5.420;2023-07-31T01:34:34;101012.63;;;16.90;89.77
79455;BME280;68900;52.134;5.420;2023-07-31T01:37:02;101011.78;;;16.89;89.59
79455;BME280;68900;52.134;5.420;2023-07-31T01:39:29;101013.47;;;16.90;89.66
79455;BME280;68900;52.134;5.420;2023-07-31T01:41:56;101012.63;;;16.90;89.61
79455;BME280;68900;52.134;5.420;2023-07-31T01:44:23;101006.16;;;16.91;89.70
79455;BME280;68900;52.134;5.420;2023-07-31T01:46:49;101002.19;;;16.93;89.94
79455;BME280;68900;52.134;5.420;2023-07-31T01:49:16;101010.19;;;16.95;89.89
79455;BME280;68900;52.134;5.420;2023-07-31T01:51:43;101008.94;;;16.97;90.43
79455;BME280;68900;52.134;5.420;2023-07-31T01:54:09;100999.94;;;16.97;90.22
79455;BME280;68900;52.134;5.420;2023-07-31T01:56:46;101005.41;;;16.97;90.10
79455;BME280;68900;52.134;5.420;2023-07-31T01:59:13;100997.03;;;16.98;90.71
79455;BME280;68900;52.134;5.420;2023-07-31T02:01:39;100997.03;;;16.98;90.64
79455;BME280;68900;52.134;5.420;2023-07-31T02:04:06;100992.41;;;16.99;90.74
79455;BME280;68900;52.134;5.420;2023-07-31T02:06:33;100989.50;;;17.00;90.77
79455;BME280;68900;52.134;5.420;2023-07-31T02:09:08;100991.78;;;16.97;91.08
79455;BME280;68900;52.134;5.420;2023-07-31T02:11:35;100985.47;;;16.96;91.04
79455;BME280;68900;52.134;5.420;2023-07-31T02:14:02;100986.69;;;16.94;91.12
79455;BME280;68900;52.134;5.420;2023-07-31T02:16:36;100972.59;;;16.90;90.89
79455;BME280;68900;52.134;5.420;2023-07-31T02:19:06;100973.63;;;16.89;90.82
79455;BME280;68900;52.134;5.420;2023-07-31T02:21:33;100964.59;;;16.89;90.55
79455;BME280;68900;52.134;5.420;2023-07-31T02:23:59;100965.25;;;16.91;90.50
79455;BME280;68900;52.134;5.420;2023-07-31T02:26:26;100957.47;;;16.88;90.71
79455;BME280;68900;52.134;5.420;2023-07-31T02:28:52;100958.97;;;16.90;90.38
79455;BME280;68900;52.134;5.420;2023-07-31T02:31:19;100964.25;;;16.92;90.42
79455;BME280;68900;52.134;5.420;2023-07-31T02:33:48;100962.16;;;16.94;90.38
79455;BME280;68900;52.134;5.420;2023-07-31T02:36:15;100960.28;;;16.94;89.85
79455;BME280;68900;52.134;5.420;2023-07-31T02:38:42;100948.53;;;16.94;90.05
79455;BME280;68900;52.134;5.420;2023-07-31T02:41:08;100952.09;;;16.94;90.37
79455;BME280;68900;52.134;5.420;2023-07-31T02:43:35;100955.22;;;16.91;90.34
79455;BME280;68900;52.134;5.420;2023-07-31T02:46:01;100954.38;;;16.91;90.34
79455;BME280;68900;52.134;5.420;2023-07-31T02:48:28;100957.94;;;16.91;90.39
79455;BME280;68900;52.134;5.420;2023-07-31T02:50:55;100956.63;;;16.87;90.78
79455;BME280;68900;52.134;5.420;2023-07-31T02:53:24;100952.22;;;16.86;90.51
79455;BME280;68900;52.134;5.420;2023-07-31T02:55:51;100938.41;;;16.88;90.33
79455;BME280;68900;52.134;5.420;2023-07-31T02:58:18;100947.88;;;16.92;90.87
79455;BME280;68900;52.134;5.420;2023-07-31T03:00:44;100928.13;;;16.90;90.30
79455;BME280;68900;52.134;5.420;2023-07-31T03:03:11;100930.41;;;16.86;90.74
79455;BME280;68900;52.134;5.420;2023-07-31T03:05:38;100927.84;;;16.85;90.37
79455;BME280;68900;52.134;5.420;2023-07-31T03:08:08;100937.72;;;16.86;90.77
79455;BME280;68900;52.134;5.420;2023-07-31T03:10:35;100933.31;;;16.85;90.56
79455;BME280;68900;52.134;5.420;2023-07-31T03:13:02;100938.13;;;16.83;91.15
79455;BME280;68900;52.134;5.420;2023-07-31T03:15:28;100932.47;;;16.84;90.80
79455;BME280;68900;52.134;5.420;2023-07-31T03:18:05;100934.56;;;16.82;90.86
79455;BME280;68900;52.134;5.420;2023-07-31T03:20:31;100936.44;;;16.82;90.89
79455;BME280;68900;52.134;5.420;2023-07-31T03:22:58;100942.06;;;16.80;90.60
79455;BME280;68900;52.134;5.420;2023-07-31T03:25:24;100936.59;;;16.80;90.77
79455;BME280;68900;52.134;5.420;2023-07-31T03:27:51;100936.25;;;16.83;91.00
79455;BME280;68900;52.134;5.420;2023-07-31T03:30:28;100932.84;;;16.81;90.57
79455;BME280;68900;52.134;5.420;2023-07-31T03:32:54;100930.13;;;16.81;90.41
79455;BME280;68900;52.134;5.420;2023-07-31T03:35:21;100933.53;;;16.83;90.53
79455;BME280;68900;52.134;5.420;2023-07-31T03:37:48;100924.50;;;16.83;90.04
79455;BME280;68900;52.134;5.420;2023-07-31T03:40:14;100928.88;;;16.84;90.26
79455;BME280;68900;52.134;5.420;2023-07-31T03:42:43;100923.66;;;16.82;90.31
79455;BME280;68900;52.134;5.420;2023-07-31T03:45:10;100928.25;;;16.82;89.92
79455;BME280;68900;52.134;5.420;2023-07-31T03:50:13;100928.44;;;16.80;90.17
79455;BME280;68900;52.134;5.420;2023-07-31T03:52:41;100934.28;;;16.77;89.90
79455;BME280;68900;52.134;5.420;2023-07-31T03:55:08;100925.06;;;16.78;89.77
79455;BME280;68900;52.134;5.420;2023-07-31T03:57:34;100929.00;;;16.75;89.90
79455;BME280;68900;52.134;5.420;2023-07-31T04:00:01;100917.47;;;16.73;89.63
79455;BME280;68900;52.134;5.420;2023-07-31T04:02:28;100922.53;;;16.76;89.83
79455;BME280;68900;52.134;5.420;2023-07-31T04:04:54;100910.59;;;16.77;89.85
79455;BME280;68900;52.134;5.420;2023-07-31T04:07:21;100912.66;;;16.75;89.64
79455;BME280;68900;52.134;5.420;2023-07-31T04:09:48;100912.81;;;16.74;89.26
79455;BME280;68900;52.134;5.420;2023-07-31T04:12:14;100907.94;;;16.69;89.92
79455;BME280;68900;52.134;5.420;2023-07-31T04:14:41;100907.13;;;16.69;89.86
79455;BME280;68900;52.134;5.420;2023-07-31T04:17:07;100902.88;;;16.66;89.95
79455;BME280;68900;52.134;5.420;2023-07-31T04:19:37;100894.06;;;16.64;89.75
79455;BME280;68900;52.134;5.420;2023-07-31T04:22:04;100890.88;;;16.61;89.59
79455;BME280;68900;52.134;5.420;2023-07-31T04:24:31;100885.63;;;16.59;89.78
79455;BME280;68900;52.134;5.420;2023-07-31T04:26:57;100882.91;;;16.59;89.51
79455;BME280;68900;52.134;5.420;2023-07-31T04:29:24;100882.69;;;16.61;89.39
79455;BME280;68900;52.134;5.420;2023-07-31T04:31:50;100885.81;;;16.58;89.63
79455;BME280;68900;52.134;5.420;2023-07-31T04:34:17;100878.63;;;16.57;90.01
79455;BME280;68900;52.134;5.420;2023-07-31T04:36:43;100887.00;;;16.55;89.46
79455;BME280;68900;52.134;5.420;2023-07-31T04:39:10;100889.53;;;16.57;89.73
79455;BME280;68900;52.134;5.420;2023-07-31T04:41:37;100897.91;;;16.55;89.65
79455;BME280;68900;52.134;5.420;2023-07-31T04:44:10;100888.41;;;16.51;90.00
79455;BME280;68900;52.134;5.420;2023-07-31T04:46:37;100891.13;;;16.51;89.92
79455;BME280;68900;52.134;5.420;2023-07-31T04:49:05;100892.19;;;16.50;89.96
79455;BME280;68900;52.134;5.420;2023-07-31T04:51:31;100885.03;;;16.49;90.08
79455;BME280;68900;52.134;5.420;2023-07-31T04:54:05;100879.59;;;16.49;90.17
79455;BME280;68900;52.134;5.420;2023-07-31T04:56:32;100882.50;;;16.48;89.89
79455;BME280;68900;52.134;5.420;2023-07-31T04:58:58;100879.94;;;16.46;90.56
79455;BME280;68900;52.134;5.420;2023-07-31T05:01:27;100874.69;;;16.45;90.53
79455;BME280;68900;52.134;5.420;2023-07-31T05:03:58;100864.84;;;16.44;90.18
79455;BME280;68900;52.134;5.420;2023-07-31T05:06:25;100864.84;;;16.44;90.44
79455;BME280;68900;52.134;5.420;2023-07-31T05:08:52;100863.34;;;16.41;90.76
79455;BME280;68900;52.134;5.420;2023-07-31T05:11:18;100862.50;;;16.41;90.56
79455;BME280;68900;52.134;5.420;2023-07-31T05:13:45;100862.97;;;16.44;90.99
79455;BME280;68900;52.134;5.420;2023-07-31T05:16:11;100862.78;;;16.46;90.93
79455;BME280;68900;52.134;5.420;2023-07-31T05:18:38;100860.25;;;16.44;91.13
79455;BME280;68900;52.134;5.420;2023-07-31T05:21:05;100859.56;;;16.42;90.97
79455;BME280;68900;52.134;5.420;2023-07-31T05:23:31;100866.72;;;16.43;91.40
79455;BME280;68900;52.134;5.420;2023-07-31T05:26:04;100863.59;;;16.46;91.38
79455;BME280;68900;52.134;5.420;2023-07-31T05:28:30;100853.56;;;16.47;91.11
79455;BME280;68900;52.134;5.420;2023-07-31T05:31:01;100853.28;;;16.42;91.53
79455;BME280;68900;52.134;5.420;2023-07-31T05:33:28;100857.06;;;16.41;91.30
79455;BME280;68900;52.134;5.420;2023-07-31T05:35:55;100850.56;;;16.42;91.30
79455;BME280;68900;52.134;5.420;2023-07-31T05:38:21;100856.38;;;16.39;90.95
79455;BME280;68900;52.134;5.420;2023-07-31T05:40:48;100841.28;;;16.36;91.03
79455;BME280;68900;52.134;5.420;2023-07-31T05:43:15;100845.03;;;16.35;91.36
79455;BME280;68900;52.134;5.420;2023-07-31T05:45:42;100838.91;;;16.33;91.30
79455;BME280;68900;52.134;5.420;2023-07-31T05:48:09;100836.00;;;16.34;91.37
79455;BME280;68900;52.134;5.420;2023-07-31T05:50:35;100831.97;;;16.30;91.41
79455;BME280;68900;52.134;5.420;2023-07-31T05:53:14;100830.09;;;16.31;91.49
79455;BME280;68900;52.134;5.420;2023-07-31T05:55:44;100829.09;;;16.32;91.63
79455;BME280;68900;52.134;5.420;2023-07-31T05:58:10;100824.44;;;16.32;91.97
79455;BME280;68900;52.134;5.420;2023-07-31T06:00:37;100815.47;;;16.32;91.91
79455;BME280;68900;52.134;5.420;2023-07-31T06:03:04;100812.53;;;16.33;91.59
79455;BME280;68900;52.134;5.420;2023-07-31T06:05:31;100811.50;;;16.34;91.87
79455;BME280;68900;52.134;5.420;2023-07-31T06:07:57;100813.56;;;16.32;91.51
79455;BME280;68900;52.134;5.420;2023-07-31T06:10:24;100817.97;;;16.33;91.85
79455;BME280;68900;52.134;5.420;2023-07-31T06:12:56;100819.00;;;16.32;92.13
79455;BME280;68900;52.134;5.420;2023-07-31T06:15:26;100809.63;;;16.35;92.21
79455;BME280;68900;52.134;5.420;2023-07-31T06:17:52;100814.22;;;16.34;92.01
79455;BME280;68900;52.134;5.420;2023-07-31T06:20:19;100810.28;;;16.37;91.91
79455;BME280;68900;52.134;5.420;2023-07-31T06:22:46;100804.19;;;16.35;92.43
79455;BME280;68900;52.134;5.420;2023-07-31T06:25:12;100807.09;;;16.33;92.12
79455;BME280;68900;52.134;5.420;2023-07-31T06:27:41;100797.72;;;16.36;92.54
79455;BME280;68900;52.134;5.420;2023-07-31T06:30:08;100802.78;;;16.39;92.66
79455;BME280;68900;52.134;5.420;2023-07-31T06:32:34;100791.03;;;16.39;92.33
79455;BME280;68900;52.134;5.420;2023-07-31T06:35:04;100801.91;;;16.39;92.35
79455;BME280;68900;52.134;5.420;2023-07-31T06:37:30;100793.56;;;16.40;92.40
79455;BME280;68900;52.134;5.420;2023-07-31T06:40:00;100781.84;;;16.40;92.25
79455;BME280;68900;52.134;5.420;2023-07-31T06:42:26;100779.75;;;16.42;92.28
79455;BME280;68900;52.134;5.420;2023-07-31T06:44:53;100773.09;;;16.44;92.30
79455;BME280;68900;52.134;5.420;2023-07-31T06:47:20;100775.63;;;16.46;92.60
79455;BME280;68900;52.134;5.420;2023-07-31T06:49:47;100771.22;;;16.45;92.58
79455;BME280;68900;52.134;5.420;2023-07-31T06:52:13;100769.13;;;16.47;92.60
79455;BME280;68900;52.134;5.420;2023-07-31T06:54:43;100770.63;;;16.49;92.87
79455;BME280;68900;52.134;5.420;2023-07-31T06:57:09;100754.75;;;16.53;93.02
79455;BME280;68900;52.134;5.420;2023-07-31T06:59:36;100769.22;;;16.53;92.93
79455;BME280;68900;52.134;5.420;2023-07-31T07:02:02;100762.19;;;16.59;92.81
79455;BME280;68900;52.134;5.420;2023-07-31T07:04:32;100752.31;;;16.58;93.01
79455;BME280;68900;52.134;5.420;2023-07-31T07:06:58;100761.34;;;16.58;93.33
79455;BME280;68900;52.134;5.420;2023-07-31T07:09:25;100756.34;;;16.62;92.95
79455;BME280;68900;52.134;5.420;2023-07-31T07:11:52;100758.03;;;16.63;93.31
79455;BME280;68900;52.134;5.420;2023-07-31T07:14:19;100761.22;;;16.66;93.01
79455;BME280;68900;52.134;5.420;2023-07-31T07:16:50;100755.94;;;16.65;93.17
79455;BME280;68900;52.134;5.420;2023-07-31T07:19:17;100755.78;;;16.66;93.22
79455;BME280;68900;52.134;5.420;2023-07-31T07:21:47;100758.94;;;16.70;93.16
79455;BME280;68900;52.134;5.420;2023-07-31T07:24:13;100756.69;;;16.73;93.22
79455;BME280;68900;52.134;5.420;2023-07-31T07:26:40;100758.38;;;16.74;93.26
79455;BME280;68900;52.134;5.420;2023-07-31T07:29:07;100754.44;;;16.77;93.00
79455;BME280;68900;52.134;5.420;2023-07-31T07:31:34;100747.94;;;16.78;93.05
79455;BME280;68900;52.134;5.420;2023-07-31T07:34:01;100758.25;;;16.83;93.08
79455;BME280;68900;52.134;5.420;2023-07-31T07:36:29;100752.41;;;16.86;93.19
79455;BME280;68900;52.134;5.420;2023-07-31T07:39:01;100754.94;;;16.87;93.23
79455;BME280;68900;52.134;5.420;2023-07-31T07:41:28;100760.00;;;16.90;93.12
79455;BME280;68900;52.134;5.420;2023-07-31T07:43:54;100752.69;;;16.91;93.44
79455;BME280;68900;52.134;5.420;2023-07-31T07:46:21;100747.03;;;16.92;93.44
79455;BME280;68900;52.134;5.420;2023-07-31T07:48:47;100749.53;;;16.94;93.29
79455;BME280;68900;52.134;5.420;2023-07-31T07:51:14;100747.66;;;16.94;93.43
79455;BME280;68900;52.134;5.420;2023-07-31T07:53:59;100743.06;;;16.95;93.50
79455;BME280;68900;52.134;5.420;2023-07-31T07:56:26;100741.00;;;16.97;93.65
79455;BME280;68900;52.134;5.420;2023-07-31T07:58:54;100741.63;;;16.99;93.59
79455;BME280;68900;52.134;5.420;2023-07-31T08:01:21;100738.50;;;17.02;93.73
79455;BME280;68900;52.134;5.420;2023-07-31T08:03:48;100742.75;;;17.04;93.61
79455;BME280;68900;52.134;5.420;2023-07-31T08:06:17;100734.38;;;17.06;93.50
79455;BME280;68900;52.134;5.420;2023-07-31T08:08:44;100735.84;;;17.08;93.79
79455;BME280;68900;52.134;5.420;2023-07-31T08:11:10;100731.69;;;17.12;93.62
79455;BME280;68900;52.134;5.420;2023-07-31T08:13:37;100724.34;;;17.13;93.67
79455;BME280;68900;52.134;5.420;2023-07-31T08:16:04;100729.22;;;17.17;93.67
79455;BME280;68900;52.134;5.420;2023-07-31T08:18:31;100720.19;;;17.17;93.52
79455;BME280;68900;52.134;5.420;2023-07-31T08:21:02;100730.91;;;17.18;93.77
79455;BME280;68900;52.134;5.420;2023-07-31T08:23:29;100721.47;;;17.21;93.86
79455;BME280;68900;52.134;5.420;2023-07-31T08:25:55;100716.28;;;17.26;93.77
79455;BME280;68900;52.134;5.420;2023-07-31T08:28:31;100723.25;;;17.29;93.73
79455;BME280;68900;52.134;5.420;2023-07-31T08:30:57;100715.06;;;17.29;93.60
79455;BME280;68900;52.134;5.420;2023-07-31T08:33:24;100716.13;;;17.34;93.52
79455;BME280;68900;52.134;5.420;2023-07-31T08:35:51;100713.03;;;17.37;93.54
79455;BME280;68900;52.134;5.420;2023-07-31T08:38:17;100705.47;;;17.39;93.45
79455;BME280;68900;52.134;5.420;2023-07-31T08:40:44;100717.22;;;17.40;93.16
79455;BME280;68900;52.134;5.420;2023-07-31T08:43:10;100714.31;;;17.41;93.40
79455;BME280;68900;52.134;5.420;2023-07-31T08:45:38;100702.78;;;17.46;93.24
79455;BME280;68900;52.134;5.420;2023-07-31T08:48:08;100716.03;;;17.49;93.01
79455;BME280;68900;52.134;5.420;2023-07-31T08:50:35;100712.06;;;17.51;93.01
79455;BME280;68900;52.134;5.420;2023-07-31T08:53:02;100718.81;;;17.55;93.19
79455;BME280;68900;52.134;5.420;2023-07-31T08:55:29;100705.22;;;17.62;92.76
79455;BME280;68900;52.134;5.420;2023-07-31T08:57:56;100708.19;;;17.67;93.00
79455;BME280;68900;52.134;5.420;2023-07-31T09:00:23;100704.44;;;17.68;93.16
79455;BME280;68900;52.134;5.420;2023-07-31T09:03:15;100706.13;;;17.69;93.04
79455;BME280;68900;52.134;5.420;2023-07-31T09:05:45;100706.56;;;17.73;92.94
79455;BME280;68900;52.134;5.420;2023-07-31T09:08:14;100715.59;;;17.73;93.33
79455;BME280;68900;52.134;5.420;2023-07-31T09:10:42;100715.81;;;17.78;93.23
79455;BME280;68900;52.134;5.420;2023-07-31T09:13:10;100706.78;;;17.78;92.84
79455;BME280;68900;52.134;5.420;2023-07-31T09:15:39;100714.97;;;17.78;93.36
79455;BME280;68900;52.134;5.420;2023-07-31T09:18:08;100714.38;;;17.82;93.13
79455;BME280;68900;52.134;5.420;2023-07-31T09:20:36;100708.06;;;17.82;93.08
79455;BME280;68900;52.134;5.420;2023-07-31T09:23:09;100702.00;;;17.80;93.11
79455;BME280;68900;52.134;5.420;2023-07-31T09:25:36;100699.88;;;17.82;93.22
79455;BME280;68900;52.134;5.420;2023-07-31T09:28:05;100704.50;;;17.81;92.39
79455;BME280;68900;52.134;5.420;2023-07-31T09:30:45;100694.66;;;17.80;92.48
79455;BME280;68900;52.134;5.420;2023-07-31T09:33:12;100702.63;;;17.82;92.69
79455;BME280;68900;52.134;5.420;2023-07-31T09:35:39;100700.53;;;17.84;92.96
79455;BME280;68900;52.134;5.420;2023-07-31T09:38:14;100688.34;;;17.86;92.83
79455;BME280;68900;52.134;5.420;2023-07-31T09:40:46;100690.91;;;17.88;92.83
79455;BME280;68900;52.134;5.420;2023-07-31T09:43:17;100702.66;;;17.88;92.63
79455;BME280;68900;52.134;5.420;2023-07-31T09:45:45;100692.59;;;17.95;92.96
79455;BME280;68900;52.134;5.420;2023-07-31T09:48:16;100695.16;;;18.03;93.05
79455;BME280;68900;52.134;5.420;2023-07-31T09:50:48;100695.59;;;18.07;93.31
79455;BME280;68900;52.134;5.420;2023-07-31T09:53:15;100692.47;;;18.10;92.86
79455;BME280;68900;52.134;5.420;2023-07-31T09:55:43;100689.31;;;18.13;92.57
79455;BME280;68900;52.134;5.420;2023-07-31T09:58:14;100685.97;;;18.11;92.92
79455;BME280;68900;52.134;5.420;2023-07-31T10:00:40;100691.41;;;18.11;92.90
79455;BME280;68900;52.134;5.420;2023-07-31T10:03:08;100689.72;;;18.10;92.97
79455;BME280;68900;52.134;5.420;2023-07-31T10:05:38;100688.88;;;18.09;92.84
79455;BME280;68900;52.134;5.420;2023-07-31T10:08:07;100686.38;;;18.15;92.88
79455;BME280;68900;52.134;5.420;2023-07-31T10:10:41;100686.63;;;18.20;92.74
79455;BME280;68900;52.134;5.420;2023-07-31T10:13:08;100681.38;;;18.25;92.73
79455;BME280;68900;52.134;5.420;2023-07-31T10:15:35;100688.72;;;18.24;92.88
79455;BME280;68900;52.134;5.420;2023-07-31T10:18:05;100689.16;;;18.28;92.54
79455;BME280;68900;52.134;5.420;2023-07-31T10:20:33;100684.97;;;18.25;92.41
79455;BME280;68900;52.134;5.420;2023-07-31T10:23:00;100684.97;;;18.25;92.09
79455;BME280;68900;52.134;5.420;2023-07-31T10:25:27;100699.47;;;18.26;92.31
79455;BME280;68900;52.134;5.420;2023-07-31T10:28:03;100692.72;;;18.28;92.33
79455;BME280;68900;52.134;5.420;2023-07-31T10:30:32;100693.16;;;18.25;92.74
79455;BME280;68900;52.134;5.420;2023-07-31T10:33:09;100692.94;;;18.27;92.68
79455;BME280;68900;52.134;5.420;2023-07-31T10:35:37;100684.97;;;18.25;91.92
79455;BME280;68900;52.134;5.420;2023-07-31T10:38:10;100690.41;;;18.25;92.21
79455;BME280;68900;52.134;5.420;2023-07-31T10:40:40;100690.41;;;18.25;92.52
79455;BME280;68900;52.134;5.420;2023-07-31T10:43:07;100690.19;;;18.27;92.44
79455;BME280;68900;52.134;5.420;2023-07-31T10:45:39;100694.84;;;18.33;92.41
79455;BME280;68900;52.134;5.420;2023-07-31T10:48:15;100689.19;;;18.34;92.53
79455;BME280;68900;52.134;5.420;2023-07-31T10:50:48;100692.75;;;18.35;92.51
79455;BME280;68900;52.134;5.420;2023-07-31T10:53:32;100695.91;;;18.38;92.33
79455;BME280;68900;52.134;5.420;2023-07-31T10:56:07;100694.47;;;18.42;92.67
79455;BME280;68900;52.134;5.420;2023-07-31T10:58:45;100691.94;;;18.47;92.53
79455;BME280;68900;52.134;5.420;2023-07-31T11:01:14;100694.25;;;18.50;92.05
79455;BME280;68900;52.134;5.420;2023-07-31T11:03:46;100677.25;;;18.48;92.27
79455;BME280;68900;52.134;5.420;2023-07-31T11:06:16;100691.09;;;18.47;92.40
79455;BME280;68900;52.134;5.420;2023-07-31T11:08:49;100692.38;;;18.51;92.22
79455;BME280;68900;52.134;5.420;2023-07-31T11:11:18;100697.84;;;18.51;92.32
79455;BME280;68900;52.134;5.420;2023-07-31T11:13:47;100692.00;;;18.54;92.16
79455;BME280;68900;52.134;5.420;2023-07-31T11:16:20;100697.91;;;18.58;91.75
79455;BME280;68900;52.134;5.420;2023-07-31T11:18:48;100689.06;;;18.62;91.69
79455;BME280;68900;52.134;5.420;2023-07-31T11:21:26;100685.94;;;18.59;92.15
79455;BME280;68900;52.134;5.420;2023-07-31T11:23:57;100677.31;;;18.62;92.12
79455;BME280;68900;52.134;5.420;2023-07-31T11:26:27;100679.00;;;18.63;92.10
79455;BME280;68900;52.134;5.420;2023-07-31T11:28:54;100677.72;;;18.65;91.97
79455;BME280;68900;52.134;5.420;2023-07-31T11:31:20;100677.72;;;18.65;92.16
79455;BME280;68900;52.134;5.420;2023-07-31T11:33:48;100686.97;;;18.64;92.06
79455;BME280;68900;52.134;5.420;2023-07-31T11:36:17;100673.28;;;18.64;92.21
79455;BME280;68900;52.134;5.420;2023-07-31T11:38:45;100680.66;;;18.64;91.75
79455;BME280;68900;52.134;5.420;2023-07-31T11:41:14;100683.63;;;18.62;91.93
79455;BME280;68900;52.134;5.420;2023-07-31T11:43:41;100686.75;;;18.66;91.69
79455;BME280;68900;52.134;5.420;2023-07-31T11:46:11;100675.84;;;18.66;91.65
79455;BME280;68900;52.134;5.420;2023-07-31T11:48:47;100676.66;;;18.60;91.86
79455;BME280;68900;52.134;5.420;2023-07-31T11:51:15;100679.81;;;18.57;92.15
79455;BME280;68900;52.134;5.420;2023-07-31T11:54:00;100680.47;;;18.59;92.13
79455;BME280;68900;52.134;5.420;2023-07-31T11:56:28;100678.34;;;18.61;92.25
79455;BME280;68900;52.134;5.420;2023-07-31T11:58:57;100666.78;;;18.59;92.13
79455;BME280;68900;52.134;5.420;2023-07-31T12:01:24;100660.69;;;18.57;92.00
79455;BME280;68900;52.134;5.420;2023-07-31T12:03:52;100672.03;;;18.53;92.02
79455;BME280;68900;52.134;5.420;2023-07-31T12:06:19;100668.88;;;18.57;92.04
79455;BME280;68900;52.134;5.420;2023-07-31T12:09:04;100672.19;;;18.52;91.91
79455;BME280;68900;52.134;5.420;2023-07-31T12:11:42;100678.50;;;18.52;91.90
79455;BME280;68900;52.134;5.420;2023-07-31T12:14:27;100675.63;;;18.54;92.18
79455;BME280;68900;52.134;5.420;2023-07-31T12:17:00;100681.50;;;18.58;92.18
79455;BME280;68900;52.134;5.420;2023-07-31T12:19:27;100674.38;;;18.63;92.37
79455;BME280;68900;52.134;5.420;2023-07-31T12:21:56;100676.88;;;18.65;92.18
79455;BME280;68900;52.134;5.420;2023-07-31T12:24:23;100674.97;;;18.65;92.35
79455;BME280;68900;52.134;5.420;2023-07-31T12:26:50;100671.81;;;18.68;92.74
79455;BME280;68900;52.134;5.420;2023-07-31T12:29:16;100668.06;;;18.69;93.02
79455;BME280;68900;52.134;5.420;2023-07-31T12:31:43;100659.66;;;18.71;92.52
79455;BME280;68900;52.134;5.420;2023-07-31T12:34:18;100649.34;;;18.73;92.41
79455;BME280;68900;52.134;5.420;2023-07-31T12:36:45;100647.44;;;18.73;92.20
79455;BME280;68900;52.134;5.420;2023-07-31T12:39:12;100645.78;;;18.72;92.09
79455;BME280;68900;52.134;5.420;2023-07-31T12:41:39;100633.34;;;18.70;91.98
79455;BME280;68900;52.134;5.420;2023-07-31T12:44:05;100642.41;;;18.70;91.89
79455;BME280;68900;52.134;5.420;2023-07-31T12:46:32;100640.72;;;18.69;92.13
79455;BME280;68900;52.134;5.420;2023-07-31T12:48:59;100643.66;;;18.74;92.18
79455;BME280;68900;52.134;5.420;2023-07-31T12:51:26;100638.84;;;18.76;91.56
79455;BME280;68900;52.134;5.420;2023-07-31T12:53:52;100639.47;;;18.78;92.21
79455;BME280;68900;52.134;5.420;2023-07-31T12:56:19;100635.25;;;18.76;91.72
79455;BME280;68900;52.134;5.420;2023-07-31T12:58:45;100634.22;;;18.77;91.71
79455;BME280;68900;52.134;5.420;2023-07-31T13:01:12;100631.50;;;18.77;91.72
79455;BME280;68900;52.134;5.420;2023-07-31T13:03:39;100627.28;;;18.81;91.61